sensor_id;sensor_type;location;lat;lon;timestamp;P1;durP1;ratioP1;P2;durP2;ratioP2
41468;SDS011;27206;47.032;15.484;2023-08-06T00:00:07;5.53;;;1.30;;
41468;SDS011;27206;47.032;15.484;2023-08-06T00:02:33;1.63;;;1.00;;
41468;SDS011;27206;47.032;15.484;2023-08-06T00:04:59;1.95;;;1.20;;
41468;SDS011;27206;47.032;15.484;2023-08-06T00:07:25;2.58;;;1.30;;
41468;SDS011;27206;47.032;15.484;2023-08-06T00:09:51;3.63;;;1.20;;
41468;SDS011;27206;47.032;15.484;2023-08-06T00:12:16;2.10;;;1.20;;
41468;SDS011;27206;47.032;15.484;2023-08-06T00:14:42;3.22;;;1.50;;
41468;SDS011;27206;47.032;15.484;2023-08-06T00:17:08;2.60;;;1.50;;
41468;SDS011;27206;47.032;15.484;2023-08-06T00:19:34;3.10;;;1.67;;
41468;SDS011;27206;47.032;15.484;2023-08-06T00:21:59;4.18;;;1.70;;
41468;SDS011;27206;47.032;15.484;2023-08-06T00:24:27;3.67;;;1.60;;
41468;SDS011;27206;47.032;15.484;2023-08-06T00:26:52;4.30;;;1.70;;
41468;SDS011;27206;47.032;15.484;2023-08-06T00:29:18;2.33;;;1.30;;
41468;SDS011;27206;47.032;15.484;2023-08-06T00:31:44;3.42;;;1.40;;
41468;SDS011;27206;47.032;15.484;2023-08-06T00:34:10;2.78;;;1.50;;
41468;SDS011;27206;47.032;15.484;2023-08-06T00:36:35;2.33;;;1.45;;
41468;SDS011;27206;47.032;15.484;2023-08-06T00:39:01;2.90;;;1.50;;
41468;SDS011;27206;47.032;15.484;2023-08-06T00:41:27;2.63;;;1.55;;
41468;SDS011;27206;47.032;15.484;2023-08-06T00:43:53;2.30;;;1.30;;
41468;SDS011;27206;47.032;15.484;2023-08-06T00:46:18;2.47;;;1.50;;
41468;SDS011;27206;47.032;15.484;2023-08-06T00:48:44;3.00;;;1.33;;
41468;SDS011;27206;47.032;15.484;2023-08-06T00:51:10;2.65;;;1.35;;
41468;SDS011;27206;47.032;15.484;2023-08-06T00:53:39;2.00;;;1.40;;
41468;SDS011;27206;47.032;15.484;2023-08-06T00:56:05;2.10;;;1.48;;
41468;SDS011;27206;47.032;15.484;2023-08-06T00:58:32;2.42;;;1.30;;
41468;SDS011;27206;47.032;15.484;2023-08-06T01:00:59;2.67;;;1.30;;
41468;SDS011;27206;47.032;15.484;2023-08-06T01:03:25;3.38;;;1.20;;
41468;SDS011;27206;47.032;15.484;2023-08-06T01:05:50;1.90;;;1.30;;
41468;SDS011;27206;47.032;15.484;2023-08-06T01:16:53;2.17;;;1.30;;
41468;SDS011;27206;47.032;15.484;2023-08-06T01:19:19;2.97;;;1.23;;
41468;SDS011;27206;47.032;15.484;2023-08-06T01:21:46;1.83;;;1.23;;
41468;SDS011;27206;47.032;15.484;2023-08-06T01:24:11;2.42;;;1.60;;
41468;SDS011;27206;47.032;15.484;2023-08-06T01:26:42;2.28;;;1.27;;
41468;SDS011;27206;47.032;15.484;2023-08-06T01:31:48;2.20;;;1.30;;
41468;SDS011;27206;47.032;15.484;2023-08-06T01:34:20;3.28;;;1.60;;
41468;SDS011;27206;47.032;15.484;2023-08-06T01:36:47;3.00;;;1.50;;
41468;SDS011;27206;47.032;15.484;2023-08-06T01:39:13;2.60;;;1.50;;
41468;SDS011;27206;47.032;15.484;2023-08-06T01:41:39;2.65;;;1.30;;
41468;SDS011;27206;47.032;15.484;2023-08-06T01:44:04;1.88;;;1.35;;
41468;SDS011;27206;47.032;15.484;2023-08-06T01:46:30;2.10;;;1.35;;
41468;SDS011;27206;47.032;15.484;2023-08-06T01:48:55;2.72;;;1.30;;
41468;SDS011;27206;47.032;15.484;2023-08-06T01:51:21;4.68;;;1.42;;
41468;SDS011;27206;47.032;15.484;2023-08-06T01:53:47;2.97;;;1.48;;
41468;SDS011;27206;47.032;15.484;2023-08-06T01:56:12;2.10;;;1.40;;
41468;SDS011;27206;47.032;15.484;2023-08-06T01:58:38;4.63;;;1.67;;
41468;SDS011;27206;47.032;15.484;2023-08-06T02:01:04;3.15;;;1.40;;
41468;SDS011;27206;47.032;15.484;2023-08-06T02:03:29;2.40;;;1.55;;
41468;SDS011;27206;47.032;15.484;2023-08-06T02:05:55;3.33;;;1.40;;
41468;SDS011;27206;47.032;15.484;2023-08-06T02:08:20;2.85;;;1.45;;
41468;SDS011;27206;47.032;15.484;2023-08-06T02:10:46;2.33;;;1.50;;
41468;SDS011;27206;47.032;15.484;2023-08-06T02:13:12;2.42;;;1.60;;
41468;SDS011;27206;47.032;15.484;2023-08-06T02:15:44;2.10;;;1.40;;
41468;SDS011;27206;47.032;15.484;2023-08-06T02:18:12;3.15;;;1.73;;
41468;SDS011;27206;47.032;15.484;2023-08-06T02:20:38;2.35;;;1.38;;
41468;SDS011;27206;47.032;15.484;2023-08-06T02:23:04;6.47;;;1.70;;
41468;SDS011;27206;47.032;15.484;2023-08-06T02:25:29;6.32;;;1.88;;
41468;SDS011;27206;47.032;15.484;2023-08-06T02:27:55;2.72;;;1.80;;
41468;SDS011;27206;47.032;15.484;2023-08-06T02:30:20;4.05;;;2.00;;
41468;SDS011;27206;47.032;15.484;2023-08-06T02:32:46;3.60;;;1.55;;
41468;SDS011;27206;47.032;15.484;2023-08-06T02:35:12;10.02;;;1.70;;
41468;SDS011;27206;47.032;15.484;2023-08-06T02:37:37;4.53;;;1.83;;
41468;SDS011;27206;47.032;15.484;2023-08-06T02:40:03;2.53;;;1.80;;
41468;SDS011;27206;47.032;15.484;2023-08-06T02:42:29;2.65;;;1.83;;
41468;SDS011;27206;47.032;15.484;2023-08-06T02:44:55;3.17;;;2.03;;
41468;SDS011;27206;47.032;15.484;2023-08-06T02:47:20;3.40;;;2.00;;
41468;SDS011;27206;47.032;15.484;2023-08-06T02:49:46;3.03;;;1.98;;
41468;SDS011;27206;47.032;15.484;2023-08-06T02:52:12;4.75;;;2.00;;
41468;SDS011;27206;47.032;15.484;2023-08-06T02:54:38;2.15;;;1.60;;
41468;SDS011;27206;47.032;15.484;2023-08-06T02:57:04;3.78;;;2.20;;
41468;SDS011;27206;47.032;15.484;2023-08-06T02:59:30;2.60;;;1.83;;
41468;SDS011;27206;47.032;15.484;2023-08-06T03:01:56;3.13;;;2.00;;
41468;SDS011;27206;47.032;15.484;2023-08-06T03:04:21;4.22;;;2.20;;
41468;SDS011;27206;47.032;15.484;2023-08-06T03:06:49;3.45;;;2.40;;
41468;SDS011;27206;47.032;15.484;2023-08-06T03:09:15;3.25;;;2.17;;
41468;SDS011;27206;47.032;15.484;2023-08-06T03:11:41;4.88;;;2.20;;
41468;SDS011;27206;47.032;15.484;2023-08-06T03:14:07;5.43;;;2.13;;
41468;SDS011;27206;47.032;15.484;2023-08-06T03:16:32;3.47;;;2.30;;
41468;SDS011;27206;47.032;15.484;2023-08-06T03:18:58;3.80;;;2.33;;
41468;SDS011;27206;47.032;15.484;2023-08-06T03:21:24;4.82;;;2.45;;
41468;SDS011;27206;47.032;15.484;2023-08-06T03:23:50;3.60;;;2.60;;
41468;SDS011;27206;47.032;15.484;2023-08-06T03:26:15;3.83;;;2.78;;
41468;SDS011;27206;47.032;15.484;2023-08-06T03:28:41;7.00;;;2.75;;
41468;SDS011;27206;47.032;15.484;2023-08-06T03:31:07;4.80;;;2.95;;
41468;SDS011;27206;47.032;15.484;2023-08-06T03:33:32;4.82;;;2.90;;
41468;SDS011;27206;47.032;15.484;2023-08-06T03:35:58;5.38;;;2.78;;
41468;SDS011;27206;47.032;15.484;2023-08-06T03:38:24;5.78;;;2.78;;
41468;SDS011;27206;47.032;15.484;2023-08-06T03:40:50;8.45;;;2.78;;
41468;SDS011;27206;47.032;15.484;2023-08-06T03:43:15;4.38;;;2.92;;
41468;SDS011;27206;47.032;15.484;2023-08-06T03:45:41;5.35;;;3.08;;
41468;SDS011;27206;47.032;15.484;2023-08-06T03:48:07;6.47;;;4.10;;
41468;SDS011;27206;47.032;15.484;2023-08-06T03:50:33;6.40;;;3.20;;
41468;SDS011;27206;47.032;15.484;2023-08-06T03:52:59;6.43;;;3.55;;
41468;SDS011;27206;47.032;15.484;2023-08-06T03:55:24;6.72;;;3.97;;
41468;SDS011;27206;47.032;15.484;2023-08-06T03:57:50;7.10;;;3.67;;
41468;SDS011;27206;47.032;15.484;2023-08-06T04:00:16;5.72;;;3.83;;
41468;SDS011;27206;47.032;15.484;2023-08-06T04:02:42;7.50;;;3.97;;
41468;SDS011;27206;47.032;15.484;2023-08-06T04:05:07;7.47;;;4.28;;
41468;SDS011;27206;47.032;15.484;2023-08-06T04:07:33;6.47;;;4.30;;
41468;SDS011;27206;47.032;15.484;2023-08-06T04:10:00;7.13;;;4.32;;
41468;SDS011;27206;47.032;15.484;2023-08-06T04:12:28;6.60;;;4.07;;
41468;SDS011;27206;47.032;15.484;2023-08-06T04:14:54;9.50;;;4.65;;
41468;SDS011;27206;47.032;15.484;2023-08-06T04:17:20;9.80;;;4.50;;
41468;SDS011;27206;47.032;15.484;2023-08-06T04:19:47;7.40;;;4.47;;
41468;SDS011;27206;47.032;15.484;2023-08-06T04:22:15;7.30;;;3.88;;
41468;SDS011;27206;47.032;15.484;2023-08-06T04:24:41;7.10;;;4.05;;
41468;SDS011;27206;47.032;15.484;2023-08-06T04:27:08;7.38;;;3.70;;
41468;SDS011;27206;47.032;15.484;2023-08-06T04:29:37;5.70;;;3.47;;
41468;SDS011;27206;47.032;15.484;2023-08-06T04:32:07;7.88;;;3.70;;
41468;SDS011;27206;47.032;15.484;2023-08-06T04:34:35;7.20;;;3.55;;
41468;SDS011;27206;47.032;15.484;2023-08-06T04:37:02;7.55;;;3.97;;
41468;SDS011;27206;47.032;15.484;2023-08-06T04:39:28;6.68;;;3.60;;
41468;SDS011;27206;47.032;15.484;2023-08-06T04:41:55;4.50;;;2.90;;
41468;SDS011;27206;47.032;15.484;2023-08-06T04:44:22;5.95;;;3.28;;
41468;SDS011;27206;47.032;15.484;2023-08-06T04:46:48;3.90;;;3.03;;
41468;SDS011;27206;47.032;15.484;2023-08-06T04:49:14;5.47;;;3.00;;
41468;SDS011;27206;47.032;15.484;2023-08-06T04:51:40;3.90;;;2.65;;
41468;SDS011;27206;47.032;15.484;2023-08-06T04:54:05;5.47;;;3.17;;
41468;SDS011;27206;47.032;15.484;2023-08-06T04:56:31;3.88;;;2.72;;
41468;SDS011;27206;47.032;15.484;2023-08-06T04:58:57;5.95;;;2.30;;
41468;SDS011;27206;47.032;15.484;2023-08-06T05:01:23;3.30;;;2.15;;
41468;SDS011;27206;47.032;15.484;2023-08-06T05:03:49;4.45;;;2.30;;
41468;SDS011;27206;47.032;15.484;2023-08-06T05:06:14;4.43;;;2.13;;
41468;SDS011;27206;47.032;15.484;2023-08-06T05:08:40;3.28;;;2.13;;
41468;SDS011;27206;47.032;15.484;2023-08-06T05:11:06;3.70;;;2.10;;
41468;SDS011;27206;47.032;15.484;2023-08-06T05:13:31;3.38;;;2.30;;
41468;SDS011;27206;47.032;15.484;2023-08-06T05:15:57;4.32;;;2.08;;
41468;SDS011;27206;47.032;15.484;2023-08-06T05:18:23;3.42;;;2.20;;
41468;SDS011;27206;47.032;15.484;2023-08-06T05:20:49;3.17;;;2.10;;
41468;SDS011;27206;47.032;15.484;2023-08-06T05:23:15;3.30;;;2.05;;
41468;SDS011;27206;47.032;15.484;2023-08-06T05:25:40;5.35;;;2.28;;
41468;SDS011;27206;47.032;15.484;2023-08-06T05:28:06;3.30;;;2.22;;
41468;SDS011;27206;47.032;15.484;2023-08-06T05:30:32;4.40;;;2.10;;
41468;SDS011;27206;47.032;15.484;2023-08-06T05:32:57;4.82;;;2.03;;
41468;SDS011;27206;47.032;15.484;2023-08-06T05:35:23;3.65;;;2.10;;
41468;SDS011;27206;47.032;15.484;2023-08-06T05:37:52;4.60;;;2.13;;
41468;SDS011;27206;47.032;15.484;2023-08-06T05:40:18;6.22;;;1.90;;
41468;SDS011;27206;47.032;15.484;2023-08-06T05:42:43;2.75;;;1.95;;
41468;SDS011;27206;47.032;15.484;2023-08-06T05:45:09;2.42;;;1.65;;
41468;SDS011;27206;47.032;15.484;2023-08-06T05:47:35;4.07;;;1.92;;
41468;SDS011;27206;47.032;15.484;2023-08-06T05:50:00;4.32;;;1.80;;
41468;SDS011;27206;47.032;15.484;2023-08-06T05:52:26;3.78;;;1.90;;
41468;SDS011;27206;47.032;15.484;2023-08-06T05:54:52;4.22;;;1.83;;
41468;SDS011;27206;47.032;15.484;2023-08-06T05:57:17;2.47;;;1.75;;
41468;SDS011;27206;47.032;15.484;2023-08-06T05:59:43;3.22;;;1.80;;
41468;SDS011;27206;47.032;15.484;2023-08-06T06:02:09;2.85;;;1.90;;
41468;SDS011;27206;47.032;15.484;2023-08-06T06:04:34;5.50;;;2.00;;
41468;SDS011;27206;47.032;15.484;2023-08-06T06:07:00;4.38;;;2.05;;
41468;SDS011;27206;47.032;15.484;2023-08-06T06:09:26;3.42;;;2.00;;
41468;SDS011;27206;47.032;15.484;2023-08-06T06:11:51;3.67;;;1.80;;
41468;SDS011;27206;47.032;15.484;2023-08-06T06:14:18;3.15;;;1.83;;
41468;SDS011;27206;47.032;15.484;2023-08-06T06:16:44;3.78;;;2.30;;
41468;SDS011;27206;47.032;15.484;2023-08-06T06:19:10;4.53;;;2.33;;
41468;SDS011;27206;47.032;15.484;2023-08-06T06:21:36;4.07;;;2.15;;
41468;SDS011;27206;47.032;15.484;2023-08-06T06:24:03;3.33;;;2.10;;
41468;SDS011;27206;47.032;15.484;2023-08-06T06:26:29;4.25;;;2.20;;
41468;SDS011;27206;47.032;15.484;2023-08-06T06:28:55;4.63;;;2.45;;
41468;SDS011;27206;47.032;15.484;2023-08-06T06:31:20;3.97;;;2.55;;
41468;SDS011;27206;47.032;15.484;2023-08-06T06:33:46;3.88;;;2.78;;
41468;SDS011;27206;47.032;15.484;2023-08-06T06:36:12;3.25;;;2.40;;
41468;SDS011;27206;47.032;15.484;2023-08-06T06:38:37;4.65;;;2.40;;
41468;SDS011;27206;47.032;15.484;2023-08-06T06:41:03;4.07;;;2.20;;
41468;SDS011;27206;47.032;15.484;2023-08-06T06:43:29;3.88;;;2.08;;
41468;SDS011;27206;47.032;15.484;2023-08-06T06:45:58;3.25;;;1.90;;
41468;SDS011;27206;47.032;15.484;2023-08-06T06:48:28;2.47;;;1.60;;
41468;SDS011;27206;47.032;15.484;2023-08-06T06:50:54;2.85;;;1.77;;
41468;SDS011;27206;47.032;15.484;2023-08-06T06:53:21;3.33;;;1.83;;
41468;SDS011;27206;47.032;15.484;2023-08-06T06:55:52;2.53;;;1.70;;
41468;SDS011;27206;47.032;15.484;2023-08-06T06:58:18;4.15;;;1.83;;
41468;SDS011;27206;47.032;15.484;2023-08-06T07:00:44;3.13;;;1.80;;
41468;SDS011;27206;47.032;15.484;2023-08-06T07:03:11;2.55;;;1.45;;
41468;SDS011;27206;47.032;15.484;2023-08-06T07:05:36;2.72;;;1.40;;
41468;SDS011;27206;47.032;15.484;2023-08-06T07:08:02;4.00;;;1.10;;
41468;SDS011;27206;47.032;15.484;2023-08-06T07:10:28;1.63;;;1.00;;
41468;SDS011;27206;47.032;15.484;2023-08-06T07:12:53;2.78;;;1.27;;
41468;SDS011;27206;47.032;15.484;2023-08-06T07:15:19;2.70;;;0.93;;
41468;SDS011;27206;47.032;15.484;2023-08-06T07:17:45;5.05;;;1.02;;
41468;SDS011;27206;47.032;15.484;2023-08-06T07:20:11;3.85;;;1.10;;
41468;SDS011;27206;47.032;15.484;2023-08-06T07:22:36;2.13;;;1.20;;
41468;SDS011;27206;47.032;15.484;2023-08-06T07:25:02;2.17;;;1.02;;
41468;SDS011;27206;47.032;15.484;2023-08-06T07:27:28;1.95;;;1.02;;
41468;SDS011;27206;47.032;15.484;2023-08-06T07:29:53;3.65;;;0.90;;
41468;SDS011;27206;47.032;15.484;2023-08-06T07:32:19;1.77;;;0.93;;
41468;SDS011;27206;47.032;15.484;2023-08-06T07:34:44;2.38;;;0.90;;
41468;SDS011;27206;47.032;15.484;2023-08-06T07:37:10;2.40;;;0.98;;
41468;SDS011;27206;47.032;15.484;2023-08-06T07:39:36;1.35;;;0.80;;
41468;SDS011;27206;47.032;15.484;2023-08-06T07:42:03;2.58;;;1.00;;
41468;SDS011;27206;47.032;15.484;2023-08-06T07:44:30;2.47;;;1.10;;
41468;SDS011;27206;47.032;15.484;2023-08-06T07:46:56;3.13;;;1.08;;
41468;SDS011;27206;47.032;15.484;2023-08-06T07:49:22;2.35;;;0.90;;
41468;SDS011;27206;47.032;15.484;2023-08-06T07:51:47;3.35;;;1.00;;
41468;SDS011;27206;47.032;15.484;2023-08-06T07:54:13;2.47;;;1.10;;
41468;SDS011;27206;47.032;15.484;2023-08-06T07:56:39;1.92;;;1.00;;
41468;SDS011;27206;47.032;15.484;2023-08-06T07:59:07;2.30;;;1.00;;
41468;SDS011;27206;47.032;15.484;2023-08-06T08:01:36;1.70;;;1.05;;
41468;SDS011;27206;47.032;15.484;2023-08-06T08:04:02;1.63;;;1.00;;
41468;SDS011;27206;47.032;15.484;2023-08-06T08:06:29;7.35;;;1.20;;
41468;SDS011;27206;47.032;15.484;2023-08-06T08:08:55;3.60;;;1.10;;
41468;SDS011;27206;47.032;15.484;2023-08-06T08:11:20;3.00;;;1.23;;
41468;SDS011;27206;47.032;15.484;2023-08-06T08:13:46;2.58;;;1.30;;
41468;SDS011;27206;47.032;15.484;2023-08-06T08:16:12;3.78;;;2.10;;
41468;SDS011;27206;47.032;15.484;2023-08-06T08:18:37;2.90;;;1.80;;
41468;SDS011;27206;47.032;15.484;2023-08-06T08:21:03;7.80;;;1.70;;
41468;SDS011;27206;47.032;15.484;2023-08-06T08:23:28;2.65;;;1.80;;
41468;SDS011;27206;47.032;15.484;2023-08-06T08:25:59;3.05;;;1.75;;
41468;SDS011;27206;47.032;15.484;2023-08-06T08:28:28;4.70;;;1.58;;
41468;SDS011;27206;47.032;15.484;2023-08-06T08:30:54;2.83;;;1.42;;
41468;SDS011;27206;47.032;15.484;2023-08-06T08:33:20;1.70;;;1.13;;
41468;SDS011;27206;47.032;15.484;2023-08-06T08:35:46;2.20;;;1.40;;
41468;SDS011;27206;47.032;15.484;2023-08-06T08:38:12;3.45;;;1.30;;
41468;SDS011;27206;47.032;15.484;2023-08-06T08:40:46;3.58;;;1.58;;
41468;SDS011;27206;47.032;15.484;2023-08-06T08:43:14;2.95;;;1.58;;
41468;SDS011;27206;47.032;15.484;2023-08-06T08:45:40;1.58;;;1.17;;
41468;SDS011;27206;47.032;15.484;2023-08-06T08:48:08;3.72;;;1.40;;
41468;SDS011;27206;47.032;15.484;2023-08-06T08:50:39;3.00;;;1.40;;
41468;SDS011;27206;47.032;15.484;2023-08-06T08:53:05;2.95;;;1.60;;
41468;SDS011;27206;47.032;15.484;2023-08-06T08:55:30;3.15;;;1.50;;
41468;SDS011;27206;47.032;15.484;2023-08-06T08:57:57;2.38;;;1.40;;
41468;SDS011;27206;47.032;15.484;2023-08-06T09:00:23;2.22;;;1.50;;
41468;SDS011;27206;47.032;15.484;2023-08-06T09:02:49;1.85;;;1.23;;
41468;SDS011;27206;47.032;15.484;2023-08-06T09:05:16;4.10;;;1.65;;
41468;SDS011;27206;47.032;15.484;2023-08-06T09:07:46;2.72;;;1.50;;
41468;SDS011;27206;47.032;15.484;2023-08-06T09:10:14;3.30;;;1.70;;
41468;SDS011;27206;47.032;15.484;2023-08-06T09:12:43;3.92;;;1.55;;
41468;SDS011;27206;47.032;15.484;2023-08-06T09:15:09;2.38;;;1.40;;
41468;SDS011;27206;47.032;15.484;2023-08-06T09:17:36;2.55;;;1.35;;
41468;SDS011;27206;47.032;15.484;2023-08-06T09:20:14;2.55;;;1.45;;
41468;SDS011;27206;47.032;15.484;2023-08-06T09:22:43;2.58;;;1.63;;
41468;SDS011;27206;47.032;15.484;2023-08-06T09:25:13;2.03;;;1.50;;
41468;SDS011;27206;47.032;15.484;2023-08-06T09:27:50;2.67;;;1.67;;
41468;SDS011;27206;47.032;15.484;2023-08-06T09:30:29;2.67;;;1.60;;
41468;SDS011;27206;47.032;15.484;2023-08-06T09:32:56;4.35;;;1.40;;
41468;SDS011;27206;47.032;15.484;2023-08-06T09:35:22;1.83;;;1.20;;
41468;SDS011;27206;47.032;15.484;2023-08-06T09:37:47;2.47;;;1.38;;
41468;SDS011;27206;47.032;15.484;2023-08-06T09:40:29;3.22;;;1.40;;
41468;SDS011;27206;47.032;15.484;2023-08-06T09:42:56;2.15;;;1.20;;
41468;SDS011;27206;47.032;15.484;2023-08-06T09:45:23;2.28;;;1.40;;
41468;SDS011;27206;47.032;15.484;2023-08-06T09:47:56;5.00;;;1.58;;
41468;SDS011;27206;47.032;15.484;2023-08-06T09:50:23;2.67;;;1.65;;
41468;SDS011;27206;47.032;15.484;2023-08-06T09:52:54;2.75;;;1.23;;
41468;SDS011;27206;47.032;15.484;2023-08-06T09:55:21;3.17;;;1.42;;
41468;SDS011;27206;47.032;15.484;2023-08-06T09:57:47;1.85;;;1.17;;
41468;SDS011;27206;47.032;15.484;2023-08-06T10:00:14;2.13;;;1.38;;
41468;SDS011;27206;47.032;15.484;2023-08-06T10:02:40;2.88;;;1.60;;
41468;SDS011;27206;47.032;15.484;2023-08-06T10:05:07;2.28;;;1.50;;
41468;SDS011;27206;47.032;15.484;2023-08-06T10:07:34;4.10;;;1.50;;
41468;SDS011;27206;47.032;15.484;2023-08-06T10:10:01;3.72;;;1.20;;
41468;SDS011;27206;47.032;15.484;2023-08-06T10:12:28;1.80;;;1.05;;
41468;SDS011;27206;47.032;15.484;2023-08-06T10:14:59;2.22;;;1.20;;
41468;SDS011;27206;47.032;15.484;2023-08-06T10:17:28;1.83;;;1.02;;
41468;SDS011;27206;47.032;15.484;2023-08-06T10:19:56;2.10;;;1.15;;
41468;SDS011;27206;47.032;15.484;2023-08-06T10:22:23;2.65;;;1.27;;
41468;SDS011;27206;47.032;15.484;2023-08-06T10:24:53;2.72;;;1.10;;
41468;SDS011;27206;47.032;15.484;2023-08-06T10:27:20;1.38;;;0.88;;
41468;SDS011;27206;47.032;15.484;2023-08-06T10:32:49;1.52;;;0.93;;
41468;SDS011;27206;47.032;15.484;2023-08-06T10:38:02;2.10;;;1.10;;
41468;SDS011;27206;47.032;15.484;2023-08-06T10:41:21;1.50;;;0.80;;
41468;SDS011;27206;47.032;15.484;2023-08-06T10:43:27;1.25;;;0.80;;
41468;SDS011;27206;47.032;15.484;2023-08-06T10:45:53;1.13;;;0.77;;
41468;SDS011;27206;47.032;15.484;2023-08-06T10:51:07;2.60;;;1.40;;
41468;SDS011;27206;47.032;15.484;2023-08-06T10:56:12;2.38;;;0.60;;
41468;SDS011;27206;47.032;15.484;2023-08-06T10:58:39;2.05;;;0.70;;
41468;SDS011;27206;47.032;15.484;2023-08-06T11:01:05;2.90;;;0.70;;
41468;SDS011;27206;47.032;15.484;2023-08-06T11:03:31;2.47;;;0.93;;
41468;SDS011;27206;47.032;15.484;2023-08-06T11:05:58;1.42;;;0.60;;
41468;SDS011;27206;47.032;15.484;2023-08-06T11:08:27;2.85;;;0.60;;
41468;SDS011;27206;47.032;15.484;2023-08-06T11:10:53;4.55;;;0.70;;
41468;SDS011;27206;47.032;15.484;2023-08-06T11:13:20;2.00;;;0.50;;
41468;SDS011;27206;47.032;15.484;2023-08-06T11:15:46;0.50;;;0.40;;
41468;SDS011;27206;47.032;15.484;2023-08-06T11:18:12;0.55;;;0.40;;
41468;SDS011;27206;47.032;15.484;2023-08-06T11:20:38;1.25;;;0.60;;
41468;SDS011;27206;47.032;15.484;2023-08-06T11:23:05;2.15;;;0.88;;
41468;SDS011;27206;47.032;15.484;2023-08-06T11:25:30;4.03;;;0.90;;
41468;SDS011;27206;47.032;15.484;2023-08-06T11:28:01;1.00;;;0.60;;
41468;SDS011;27206;47.032;15.484;2023-08-06T11:30:26;1.13;;;0.60;;
41468;SDS011;27206;47.032;15.484;2023-08-06T11:32:52;1.45;;;0.70;;
41468;SDS011;27206;47.032;15.484;2023-08-06T11:35:18;1.52;;;0.80;;
41468;SDS011;27206;47.032;15.484;2023-08-06T11:37:44;0.98;;;0.60;;
41468;SDS011;27206;47.032;15.484;2023-08-06T11:40:11;0.95;;;0.52;;
41468;SDS011;27206;47.032;15.484;2023-08-06T11:42:46;1.00;;;0.60;;
41468;SDS011;27206;47.032;15.484;2023-08-06T11:45:12;1.27;;;0.60;;
41468;SDS011;27206;47.032;15.484;2023-08-06T11:47:38;1.45;;;0.52;;
41468;SDS011;27206;47.032;15.484;2023-08-06T11:50:07;1.10;;;0.55;;
41468;SDS011;27206;47.032;15.484;2023-08-06T11:52:33;0.98;;;0.60;;
41468;SDS011;27206;47.032;15.484;2023-08-06T11:55:06;0.90;;;0.60;;
41468;SDS011;27206;47.032;15.484;2023-08-06T11:57:35;1.33;;;0.43;;
41468;SDS011;27206;47.032;15.484;2023-08-06T12:00:05;0.88;;;0.52;;
41468;SDS011;27206;47.032;15.484;2023-08-06T12:05:09;1.13;;;0.70;;
41468;SDS011;27206;47.032;15.484;2023-08-06T12:07:37;1.20;;;0.60;;
41468;SDS011;27206;47.032;15.484;2023-08-06T12:10:04;0.60;;;0.50;;
41468;SDS011;27206;47.032;15.484;2023-08-06T12:12:30;0.85;;;0.40;;
41468;SDS011;27206;47.032;15.484;2023-08-06T12:14:56;1.20;;;0.60;;
41468;SDS011;27206;47.032;15.484;2023-08-06T12:17:25;0.75;;;0.57;;
41468;SDS011;27206;47.032;15.484;2023-08-06T12:19:51;1.30;;;0.50;;
41468;SDS011;27206;47.032;15.484;2023-08-06T12:22:17;6.90;;;1.10;;
41468;SDS011;27206;47.032;15.484;2023-08-06T12:24:43;1.20;;;0.68;;
41468;SDS011;27206;47.032;15.484;2023-08-06T12:27:10;15.95;;;14.50;;
41468;SDS011;27206;47.032;15.484;2023-08-06T12:29:42;4.18;;;3.53;;
41468;SDS011;27206;47.032;15.484;2023-08-06T12:32:10;6.90;;;5.90;;
41468;SDS011;27206;47.032;15.484;2023-08-06T12:34:37;8.63;;;7.78;;
41468;SDS011;27206;47.032;15.484;2023-08-06T12:37:06;6.47;;;4.40;;
41468;SDS011;27206;47.032;15.484;2023-08-06T12:39:33;0.93;;;0.50;;
41468;SDS011;27206;47.032;15.484;2023-08-06T12:42:03;1.15;;;0.70;;
41468;SDS011;27206;47.032;15.484;2023-08-06T12:44:30;1.00;;;0.50;;
41468;SDS011;27206;47.032;15.484;2023-08-06T12:46:56;2.20;;;0.50;;
41468;SDS011;27206;47.032;15.484;2023-08-06T12:49:22;0.95;;;0.60;;
41468;SDS011;27206;47.032;15.484;2023-08-06T12:51:51;1.00;;;0.40;;
41468;SDS011;27206;47.032;15.484;2023-08-06T12:54:18;1.13;;;0.50;;
41468;SDS011;27206;47.032;15.484;2023-08-06T12:56:47;0.60;;;0.30;;
41468;SDS011;27206;47.032;15.484;2023-08-06T12:59:13;3.05;;;1.05;;
41468;SDS011;27206;47.032;15.484;2023-08-06T13:01:40;0.73;;;0.30;;
41468;SDS011;27206;47.032;15.484;2023-08-06T13:04:06;0.98;;;0.38;;
41468;SDS011;27206;47.032;15.484;2023-08-06T13:06:32;2.00;;;0.75;;
41468;SDS011;27206;47.032;15.484;2023-08-06T13:09:02;0.80;;;0.30;;
41468;SDS011;27206;47.032;15.484;2023-08-06T13:11:29;1.00;;;0.55;;
41468;SDS011;27206;47.032;15.484;2023-08-06T13:13:56;1.13;;;0.38;;
41468;SDS011;27206;47.032;15.484;2023-08-06T13:16:32;0.50;;;0.28;;
41468;SDS011;27206;47.032;15.484;2023-08-06T13:18:58;0.60;;;0.32;;
41468;SDS011;27206;47.032;15.484;2023-08-06T13:21:30;23.10;;;17.25;;
41468;SDS011;27206;47.032;15.484;2023-08-06T13:24:00;3.92;;;2.08;;
41468;SDS011;27206;47.032;15.484;2023-08-06T13:26:28;1.52;;;0.90;;
41468;SDS011;27206;47.032;15.484;2023-08-06T13:28:57;2.22;;;1.33;;
41468;SDS011;27206;47.032;15.484;2023-08-06T13:31:23;1.02;;;0.50;;
41468;SDS011;27206;47.032;15.484;2023-08-06T13:33:49;1.33;;;0.32;;
41468;SDS011;27206;47.032;15.484;2023-08-06T13:36:15;0.77;;;0.50;;
41468;SDS011;27206;47.032;15.484;2023-08-06T13:38:41;0.70;;;0.40;;
41468;SDS011;27206;47.032;15.484;2023-08-06T13:41:07;0.63;;;0.22;;
41468;SDS011;27206;47.032;15.484;2023-08-06T13:43:33;0.80;;;0.40;;
41468;SDS011;27206;47.032;15.484;2023-08-06T13:45:58;0.82;;;0.35;;
41468;SDS011;27206;47.032;15.484;2023-08-06T13:48:24;0.73;;;0.28;;
41468;SDS011;27206;47.032;15.484;2023-08-06T13:50:49;0.95;;;0.30;;
41468;SDS011;27206;47.032;15.484;2023-08-06T13:53:15;18.00;;;14.35;;
41468;SDS011;27206;47.032;15.484;2023-08-06T13:55:41;52.38;;;40.33;;
41468;SDS011;27206;47.032;15.484;2023-08-06T13:58:06;59.13;;;48.47;;
41468;SDS011;27206;47.032;15.484;2023-08-06T14:00:32;21.25;;;16.38;;
41468;SDS011;27206;47.032;15.484;2023-08-06T14:02:57;19.67;;;14.45;;
41468;SDS011;27206;47.032;15.484;2023-08-06T14:05:23;3.58;;;2.10;;
41468;SDS011;27206;47.032;15.484;2023-08-06T14:07:49;10.65;;;7.13;;
41468;SDS011;27206;47.032;15.484;2023-08-06T14:10:15;1.00;;;0.60;;
41468;SDS011;27206;47.032;15.484;2023-08-06T14:12:41;4.72;;;3.20;;
41468;SDS011;27206;47.032;15.484;2023-08-06T14:15:06;0.98;;;0.50;;
41468;SDS011;27206;47.032;15.484;2023-08-06T14:17:33;2.55;;;1.38;;
41468;SDS011;27206;47.032;15.484;2023-08-06T14:19:58;1.70;;;0.40;;
41468;SDS011;27206;47.032;15.484;2023-08-06T14:22:25;1.38;;;0.35;;
41468;SDS011;27206;47.032;15.484;2023-08-06T14:24:51;0.88;;;0.40;;
41468;SDS011;27206;47.032;15.484;2023-08-06T14:27:17;5.43;;;3.22;;
41468;SDS011;27206;47.032;15.484;2023-08-06T14:29:42;1.60;;;1.00;;
41468;SDS011;27206;47.032;15.484;2023-08-06T14:32:08;0.95;;;0.57;;
41468;SDS011;27206;47.032;15.484;2023-08-06T14:34:33;1.35;;;0.68;;
41468;SDS011;27206;47.032;15.484;2023-08-06T14:37:00;0.88;;;0.55;;
41468;SDS011;27206;47.032;15.484;2023-08-06T14:39:25;4.63;;;2.00;;
41468;SDS011;27206;47.032;15.484;2023-08-06T14:41:51;4.68;;;2.80;;
41468;SDS011;27206;47.032;15.484;2023-08-06T14:44:20;2.05;;;0.60;;
41468;SDS011;27206;47.032;15.484;2023-08-06T14:46:46;2.72;;;0.50;;
41468;SDS011;27206;47.032;15.484;2023-08-06T14:49:12;1.85;;;0.57;;
41468;SDS011;27206;47.032;15.484;2023-08-06T14:51:38;1.38;;;0.55;;
41468;SDS011;27206;47.032;15.484;2023-08-06T14:54:04;0.85;;;0.40;;